sensor_id;sensor_type;location;lat;lon;timestamp;P1;durP1;ratioP1;P2;durP2;ratioP2
56381;SDS011;50261;51.150;4.470;2022-10-01T00:00:47;12.02;;;7.78;;
56381;SDS011;50261;51.150;4.470;2022-10-01T00:03:13;10.45;;;8.13;;
56381;SDS011;50261;51.150;4.470;2022-10-01T00:05:38;11.02;;;8.88;;
56381;SDS011;50261;51.150;4.470;2022-10-01T00:08:04;8.88;;;7.40;;
56381;SDS011;50261;51.150;4.470;2022-10-01T00:10:30;9.52;;;8.52;;
56381;SDS011;50261;51.150;4.470;2022-10-01T00:12:56;13.77;;;9.02;;
56381;SDS011;50261;51.150;4.470;2022-10-01T00:15:23;9.75;;;8.10;;
56381;SDS011;50261;51.150;4.470;2022-10-01T00:17:53;10.30;;;8.57;;
56381;SDS011;50261;51.150;4.470;2022-10-01T00:20:19;7.05;;;5.45;;
56381;SDS011;50261;51.150;4.470;2022-10-01T00:22:45;7.47;;;5.70;;
56381;SDS011;50261;51.150;4.470;2022-10-01T00:25:11;9.00;;;7.25;;
56381;SDS011;50261;51.150;4.470;2022-10-01T00:27:37;10.02;;;6.82;;
56381;SDS011;50261;51.150;4.470;2022-10-01T00:30:03;8.07;;;6.30;;
56381;SDS011;50261;51.150;4.470;2022-10-01T00:32:29;12.73;;;6.65;;
56381;SDS011;50261;51.150;4.470;2022-10-01T00:34:57;7.95;;;5.28;;
56381;SDS011;50261;51.150;4.470;2022-10-01T00:37:23;15.00;;;6.85;;
56381;SDS011;50261;51.150;4.470;2022-10-01T00:39:49;14.23;;;6.43;;
56381;SDS011;50261;51.150;4.470;2022-10-01T00:42:16;19.10;;;6.35;;
56381;SDS011;50261;51.150;4.470;2022-10-01T00:44:42;9.02;;;5.82;;
56381;SDS011;50261;51.150;4.470;2022-10-01T00:47:18;12.88;;;6.03;;
56381;SDS011;50261;51.150;4.470;2022-10-01T00:49:45;6.78;;;5.82;;
56381;SDS011;50261;51.150;4.470;2022-10-01T00:52:13;10.95;;;5.95;;
56381;SDS011;50261;51.150;4.470;2022-10-01T00:54:42;7.60;;;5.10;;
56381;SDS011;50261;51.150;4.470;2022-10-01T00:57:09;14.40;;;5.68;;
56381;SDS011;50261;51.150;4.470;2022-10-01T00:59:35;6.38;;;4.40;;
56381;SDS011;50261;51.150;4.470;2022-10-01T01:02:01;9.68;;;4.50;;
56381;SDS011;50261;51.150;4.470;2022-10-01T01:04:27;7.50;;;5.10;;
56381;SDS011;50261;51.150;4.470;2022-10-01T01:06:53;9.35;;;4.45;;
56381;SDS011;50261;51.150;4.470;2022-10-01T01:09:23;5.95;;;4.88;;
56381;SDS011;50261;51.150;4.470;2022-10-01T01:12:11;5.03;;;4.15;;
56381;SDS011;50261;51.150;4.470;2022-10-01T01:17:09;6.18;;;4.18;;
56381;SDS011;50261;51.150;4.470;2022-10-01T01:19:43;5.07;;;3.78;;
56381;SDS011;50261;51.150;4.470;2022-10-01T01:22:11;4.53;;;3.63;;
56381;SDS011;50261;51.150;4.470;2022-10-01T01:24:49;4.32;;;3.65;;
56381;SDS011;50261;51.150;4.470;2022-10-01T01:36:00;5.05;;;3.72;;
56381;SDS011;50261;51.150;4.470;2022-10-01T01:38:07;4.07;;;3.30;;
56381;SDS011;50261;51.150;4.470;2022-10-01T01:40:35;3.42;;;2.60;;
56381;SDS011;50261;51.150;4.470;2022-10-01T01:43:06;3.75;;;3.15;;
56381;SDS011;50261;51.150;4.470;2022-10-01T01:45:32;4.20;;;2.90;;
56381;SDS011;50261;51.150;4.470;2022-10-01T01:48:00;3.55;;;2.53;;
56381;SDS011;50261;51.150;4.470;2022-10-01T01:50:27;3.22;;;2.35;;
56381;SDS011;50261;51.150;4.470;2022-10-01T01:52:53;2.65;;;2.15;;
56381;SDS011;50261;51.150;4.470;2022-10-01T01:55:21;2.85;;;2.22;;
56381;SDS011;50261;51.150;4.470;2022-10-01T01:57:47;2.42;;;2.20;;
56381;SDS011;50261;51.150;4.470;2022-10-01T02:00:14;2.85;;;2.50;;
56381;SDS011;50261;51.150;4.470;2022-10-01T02:02:42;2.85;;;2.50;;
56381;SDS011;50261;51.150;4.470;2022-10-01T02:05:09;1.95;;;1.75;;
56381;SDS011;50261;51.150;4.470;2022-10-01T02:07:53;2.75;;;1.95;;
56381;SDS011;50261;51.150;4.470;2022-10-01T02:10:31;2.00;;;1.60;;
56381;SDS011;50261;51.150;4.470;2022-10-01T02:15:39;2.22;;;1.63;;
56381;SDS011;50261;51.150;4.470;2022-10-01T02:20:47;4.63;;;1.65;;
56381;SDS011;50261;51.150;4.470;2022-10-01T02:23:16;2.28;;;1.30;;
56381;SDS011;50261;51.150;4.470;2022-10-01T02:25:54;1.92;;;1.70;;
56381;SDS011;50261;51.150;4.470;2022-10-01T02:28:21;2.65;;;1.40;;
56381;SDS011;50261;51.150;4.470;2022-10-01T02:30:48;1.63;;;1.30;;
56381;SDS011;50261;51.150;4.470;2022-10-01T02:33:15;1.92;;;1.35;;
56381;SDS011;50261;51.150;4.470;2022-10-01T02:35:42;1.73;;;1.52;;
56381;SDS011;50261;51.150;4.470;2022-10-01T02:38:09;2.58;;;1.20;;
56381;SDS011;50261;51.150;4.470;2022-10-01T02:40:37;1.52;;;1.38;;
56381;SDS011;50261;51.150;4.470;2022-10-01T02:43:14;2.47;;;1.73;;
56381;SDS011;50261;51.150;4.470;2022-10-01T02:45:42;1.25;;;1.10;;
56381;SDS011;50261;51.150;4.470;2022-10-01T02:48:10;1.27;;;1.13;;
56381;SDS011;50261;51.150;4.470;2022-10-01T02:50:40;1.90;;;1.10;;
56381;SDS011;50261;51.150;4.470;2022-10-01T02:55:45;1.67;;;1.00;;
56381;SDS011;50261;51.150;4.470;2022-10-01T02:58:11;3.20;;;1.00;;
56381;SDS011;50261;51.150;4.470;2022-10-01T03:00:37;1.77;;;0.90;;
56381;SDS011;50261;51.150;4.470;2022-10-01T03:03:03;3.00;;;0.90;;
56381;SDS011;50261;51.150;4.470;2022-10-01T03:05:28;2.00;;;0.68;;
56381;SDS011;50261;51.150;4.470;2022-10-01T03:07:54;1.30;;;0.70;;
56381;SDS011;50261;51.150;4.470;2022-10-01T03:10:20;0.95;;;0.60;;
56381;SDS011;50261;51.150;4.470;2022-10-01T03:12:46;2.90;;;0.77;;
56381;SDS011;50261;51.150;4.470;2022-10-01T03:15:12;1.02;;;0.68;;
56381;SDS011;50261;51.150;4.470;2022-10-01T03:17:38;2.03;;;1.10;;
56381;SDS011;50261;51.150;4.470;2022-10-01T03:20:04;2.45;;;0.80;;
56381;SDS011;50261;51.150;4.470;2022-10-01T03:22:30;3.63;;;0.90;;
56381;SDS011;50261;51.150;4.470;2022-10-01T03:24:56;3.63;;;1.55;;
56381;SDS011;50261;51.150;4.470;2022-10-01T03:27:21;2.05;;;1.27;;
56381;SDS011;50261;51.150;4.470;2022-10-01T03:29:47;1.67;;;0.75;;
56381;SDS011;50261;51.150;4.470;2022-10-01T03:32:13;2.90;;;1.23;;
56381;SDS011;50261;51.150;4.470;2022-10-01T03:34:39;1.40;;;1.17;;
56381;SDS011;50261;51.150;4.470;2022-10-01T03:37:05;1.92;;;1.27;;
56381;SDS011;50261;51.150;4.470;2022-10-01T03:39:31;4.60;;;2.08;;
56381;SDS011;50261;51.150;4.470;2022-10-01T03:41:57;1.50;;;1.27;;
56381;SDS011;50261;51.150;4.470;2022-10-01T03:44:23;1.40;;;1.10;;
56381;SDS011;50261;51.150;4.470;2022-10-01T03:46:49;2.63;;;1.80;;
56381;SDS011;50261;51.150;4.470;2022-10-01T03:49:14;4.45;;;1.83;;
56381;SDS011;50261;51.150;4.470;2022-10-01T03:51:40;2.28;;;1.90;;
56381;SDS011;50261;51.150;4.470;2022-10-01T03:54:06;2.05;;;1.60;;
56381;SDS011;50261;51.150;4.470;2022-10-01T03:56:32;2.63;;;1.83;;
56381;SDS011;50261;51.150;4.470;2022-10-01T03:58:58;3.72;;;1.85;;
56381;SDS011;50261;51.150;4.470;2022-10-01T04:01:24;2.30;;;1.73;;
56381;SDS011;50261;51.150;4.470;2022-10-01T04:03:50;5.13;;;2.00;;
56381;SDS011;50261;51.150;4.470;2022-10-01T04:06:16;2.78;;;1.90;;
56381;SDS011;50261;51.150;4.470;2022-10-01T04:08:42;3.35;;;2.40;;
56381;SDS011;50261;51.150;4.470;2022-10-01T04:11:08;2.53;;;2.03;;
56381;SDS011;50261;51.150;4.470;2022-10-01T04:13:33;3.28;;;2.38;;
56381;SDS011;50261;51.150;4.470;2022-10-01T04:15:59;3.40;;;2.35;;
56381;SDS011;50261;51.150;4.470;2022-10-01T04:18:25;2.90;;;2.60;;
56381;SDS011;50261;51.150;4.470;2022-10-01T04:20:51;3.55;;;2.40;;
56381;SDS011;50261;51.150;4.470;2022-10-01T04:23:17;3.10;;;2.50;;
56381;SDS011;50261;51.150;4.470;2022-10-01T04:25:42;3.05;;;2.47;;
56381;SDS011;50261;51.150;4.470;2022-10-01T04:28:11;4.05;;;1.98;;
56381;SDS011;50261;51.150;4.470;2022-10-01T04:30:38;4.75;;;2.65;;
56381;SDS011;50261;51.150;4.470;2022-10-01T04:33:05;2.17;;;1.40;;
56381;SDS011;50261;51.150;4.470;2022-10-01T04:35:31;2.30;;;2.10;;
56381;SDS011;50261;51.150;4.470;2022-10-01T04:37:57;4.57;;;2.28;;
56381;SDS011;50261;51.150;4.470;2022-10-01T04:40:31;4.88;;;2.30;;
56381;SDS011;50261;51.150;4.470;2022-10-01T04:42:59;3.40;;;2.00;;
56381;SDS011;50261;51.150;4.470;2022-10-01T04:45:24;2.60;;;2.13;;
56381;SDS011;50261;51.150;4.470;2022-10-01T04:47:51;3.25;;;2.15;;
56381;SDS011;50261;51.150;4.470;2022-10-01T04:50:17;2.53;;;1.80;;
56381;SDS011;50261;51.150;4.470;2022-10-01T04:52:47;3.40;;;2.00;;
56381;SDS011;50261;51.150;4.470;2022-10-01T04:55:12;2.38;;;1.80;;
56381;SDS011;50261;51.150;4.470;2022-10-01T04:57:38;2.70;;;1.77;;
56381;SDS011;50261;51.150;4.470;2022-10-01T05:00:05;2.72;;;1.90;;
56381;SDS011;50261;51.150;4.470;2022-10-01T05:02:31;3.83;;;1.92;;
56381;SDS011;50261;51.150;4.470;2022-10-01T05:04:59;1.77;;;1.63;;
56381;SDS011;50261;51.150;4.470;2022-10-01T05:07:25;3.75;;;1.60;;
56381;SDS011;50261;51.150;4.470;2022-10-01T05:09:50;2.50;;;2.15;;
56381;SDS011;50261;51.150;4.470;2022-10-01T05:12:16;3.65;;;2.30;;
56381;SDS011;50261;51.150;4.470;2022-10-01T05:14:42;2.25;;;2.05;;
56381;SDS011;50261;51.150;4.470;2022-10-01T05:17:08;4.40;;;2.20;;
56381;SDS011;50261;51.150;4.470;2022-10-01T05:19:33;4.07;;;2.40;;
56381;SDS011;50261;51.150;4.470;2022-10-01T05:21:59;5.82;;;2.45;;
56381;SDS011;50261;51.150;4.470;2022-10-01T05:24:25;5.93;;;2.45;;
56381;SDS011;50261;51.150;4.470;2022-10-01T05:26:51;3.40;;;2.00;;
56381;SDS011;50261;51.150;4.470;2022-10-01T05:29:18;5.75;;;2.30;;
56381;SDS011;50261;51.150;4.470;2022-10-01T05:31:44;3.97;;;2.42;;
56381;SDS011;50261;51.150;4.470;2022-10-01T05:34:10;4.00;;;2.70;;
56381;SDS011;50261;51.150;4.470;2022-10-01T05:36:36;3.63;;;2.42;;
56381;SDS011;50261;51.150;4.470;2022-10-01T05:39:02;4.18;;;2.80;;
56381;SDS011;50261;51.150;4.470;2022-10-01T05:41:28;9.05;;;2.38;;
56381;SDS011;50261;51.150;4.470;2022-10-01T05:43:54;7.25;;;3.05;;
56381;SDS011;50261;51.150;4.470;2022-10-01T05:46:20;4.70;;;3.08;;
56381;SDS011;50261;51.150;4.470;2022-10-01T05:48:49;5.78;;;3.33;;
56381;SDS011;50261;51.150;4.470;2022-10-01T05:51:16;10.00;;;3.42;;
56381;SDS011;50261;51.150;4.470;2022-10-01T05:53:41;11.80;;;3.50;;
56381;SDS011;50261;51.150;4.470;2022-10-01T05:56:07;7.05;;;3.38;;
56381;SDS011;50261;51.150;4.470;2022-10-01T05:58:34;4.95;;;3.60;;
56381;SDS011;50261;51.150;4.470;2022-10-01T06:01:00;8.35;;;4.00;;
56381;SDS011;50261;51.150;4.470;2022-10-01T06:03:27;6.32;;;3.65;;
56381;SDS011;50261;51.150;4.470;2022-10-01T06:05:53;8.55;;;5.45;;
56381;SDS011;50261;51.150;4.470;2022-10-01T06:08:18;5.80;;;5.20;;
56381;SDS011;50261;51.150;4.470;2022-10-01T06:10:44;8.32;;;3.88;;
56381;SDS011;50261;51.150;4.470;2022-10-01T06:13:10;8.50;;;5.38;;
56381;SDS011;50261;51.150;4.470;2022-10-01T06:15:40;8.77;;;3.83;;
56381;SDS011;50261;51.150;4.470;2022-10-01T06:18:07;7.70;;;4.47;;
56381;SDS011;50261;51.150;4.470;2022-10-01T06:20:33;11.48;;;5.82;;
56381;SDS011;50261;51.150;4.470;2022-10-01T06:22:59;9.15;;;5.25;;
56381;SDS011;50261;51.150;4.470;2022-10-01T06:25:24;9.00;;;5.78;;
56381;SDS011;50261;51.150;4.470;2022-10-01T06:27:54;8.65;;;5.32;;
56381;SDS011;50261;51.150;4.470;2022-10-01T06:30:22;8.40;;;5.45;;
56381;SDS011;50261;51.150;4.470;2022-10-01T06:32:49;11.43;;;5.72;;
56381;SDS011;50261;51.150;4.470;2022-10-01T06:35:14;8.98;;;6.28;;
56381;SDS011;50261;51.150;4.470;2022-10-01T06:37:40;8.38;;;5.55;;
56381;SDS011;50261;51.150;4.470;2022-10-01T06:40:05;11.10;;;6.00;;
56381;SDS011;50261;51.150;4.470;2022-10-01T06:42:31;10.32;;;5.60;;
56381;SDS011;50261;51.150;4.470;2022-10-01T06:44:57;9.15;;;5.18;;
56381;SDS011;50261;51.150;4.470;2022-10-01T06:47:23;7.32;;;4.25;;
56381;SDS011;50261;51.150;4.470;2022-10-01T06:49:48;11.15;;;5.95;;
56381;SDS011;50261;51.150;4.470;2022-10-01T06:52:14;12.40;;;6.97;;
56381;SDS011;50261;51.150;4.470;2022-10-01T06:54:58;12.75;;;6.95;;
56381;SDS011;50261;51.150;4.470;2022-10-01T06:57:26;10.02;;;6.18;;
56381;SDS011;50261;51.150;4.470;2022-10-01T06:59:52;11.77;;;7.88;;
56381;SDS011;50261;51.150;4.470;2022-10-01T07:02:24;13.18;;;7.28;;
56381;SDS011;50261;51.150;4.470;2022-10-01T07:04:57;19.90;;;8.23;;
56381;SDS011;50261;51.150;4.470;2022-10-01T07:07:24;11.38;;;8.15;;
56381;SDS011;50261;51.150;4.470;2022-10-01T07:09:52;17.52;;;8.43;;
56381;SDS011;50261;51.150;4.470;2022-10-01T07:12:18;16.70;;;8.60;;
56381;SDS011;50261;51.150;4.470;2022-10-01T07:14:44;12.60;;;7.93;;
56381;SDS011;50261;51.150;4.470;2022-10-01T07:17:10;13.90;;;6.60;;
56381;SDS011;50261;51.150;4.470;2022-10-01T07:19:35;13.25;;;7.45;;
56381;SDS011;50261;51.150;4.470;2022-10-01T07:22:01;10.48;;;5.35;;
56381;SDS011;50261;51.150;4.470;2022-10-01T07:24:26;18.08;;;7.53;;
56381;SDS011;50261;51.150;4.470;2022-10-01T07:26:52;12.55;;;7.40;;
56381;SDS011;50261;51.150;4.470;2022-10-01T07:29:22;18.88;;;7.15;;
56381;SDS011;50261;51.150;4.470;2022-10-01T07:31:49;15.48;;;6.25;;
56381;SDS011;50261;51.150;4.470;2022-10-01T07:34:14;21.73;;;7.22;;
56381;SDS011;50261;51.150;4.470;2022-10-01T07:36:40;19.95;;;6.78;;
56381;SDS011;50261;51.150;4.470;2022-10-01T07:39:07;17.63;;;6.95;;
56381;SDS011;50261;51.150;4.470;2022-10-01T07:41:32;19.85;;;6.75;;
56381;SDS011;50261;51.150;4.470;2022-10-01T07:43:58;16.02;;;6.13;;
56381;SDS011;50261;51.150;4.470;2022-10-01T07:46:24;14.80;;;5.68;;
56381;SDS011;50261;51.150;4.470;2022-10-01T07:48:49;20.20;;;6.78;;
56381;SDS011;50261;51.150;4.470;2022-10-01T07:51:15;16.73;;;5.93;;
56381;SDS011;50261;51.150;4.470;2022-10-01T07:53:40;22.38;;;5.72;;
56381;SDS011;50261;51.150;4.470;2022-10-01T07:56:06;22.25;;;5.55;;
56381;SDS011;50261;51.150;4.470;2022-10-01T07:58:32;10.30;;;4.70;;
56381;SDS011;50261;51.150;4.470;2022-10-01T08:01:01;16.02;;;4.47;;
56381;SDS011;50261;51.150;4.470;2022-10-01T08:03:26;11.30;;;3.75;;
56381;SDS011;50261;51.150;4.470;2022-10-01T08:05:52;16.08;;;4.60;;
56381;SDS011;50261;51.150;4.470;2022-10-01T08:08:18;17.10;;;4.63;;
56381;SDS011;50261;51.150;4.470;2022-10-01T08:10:44;14.07;;;3.88;;
56381;SDS011;50261;51.150;4.470;2022-10-01T08:13:12;17.42;;;4.38;;
56381;SDS011;50261;51.150;4.470;2022-10-01T08:15:41;16.98;;;4.18;;
56381;SDS011;50261;51.150;4.470;2022-10-01T08:18:07;21.17;;;3.75;;
56381;SDS011;50261;51.150;4.470;2022-10-01T08:20:33;18.38;;;4.10;;
56381;SDS011;50261;51.150;4.470;2022-10-01T08:23:02;26.13;;;5.50;;
56381;SDS011;50261;51.150;4.470;2022-10-01T08:25:28;17.88;;;3.88;;
56381;SDS011;50261;51.150;4.470;2022-10-01T08:27:53;18.67;;;3.55;;
56381;SDS011;50261;51.150;4.470;2022-10-01T08:30:19;17.88;;;3.67;;
56381;SDS011;50261;51.150;4.470;2022-10-01T08:32:44;26.83;;;4.10;;
56381;SDS011;50261;51.150;4.470;2022-10-01T08:35:10;12.13;;;3.15;;
56381;SDS011;50261;51.150;4.470;2022-10-01T08:37:36;17.48;;;3.78;;
56381;SDS011;50261;51.150;4.470;2022-10-01T08:40:02;15.02;;;4.40;;
56381;SDS011;50261;51.150;4.470;2022-10-01T08:42:34;14.65;;;3.42;;
56381;SDS011;50261;51.150;4.470;2022-10-01T08:45:04;15.93;;;3.65;;
56381;SDS011;50261;51.150;4.470;2022-10-01T08:47:32;14.27;;;2.92;;
56381;SDS011;50261;51.150;4.470;2022-10-01T08:50:02;12.50;;;2.58;;
56381;SDS011;50261;51.150;4.470;2022-10-01T08:52:31;12.35;;;3.03;;
56381;SDS011;50261;51.150;4.470;2022-10-01T08:54:59;17.30;;;3.15;;
56381;SDS011;50261;51.150;4.470;2022-10-01T08:57:27;14.98;;;3.70;;
56381;SDS011;50261;51.150;4.470;2022-10-01T08:59:55;14.85;;;3.90;;
56381;SDS011;50261;51.150;4.470;2022-10-01T09:04:48;14.45;;;3.78;;
56381;SDS011;50261;51.150;4.470;2022-10-01T09:07:22;10.38;;;2.97;;
56381;SDS011;50261;51.150;4.470;2022-10-01T09:09:53;13.27;;;3.65;;
56381;SDS011;50261;51.150;4.470;2022-10-01T09:20:26;12.55;;;3.72;;
56381;SDS011;50261;51.150;4.470;2022-10-01T09:28:25;9.45;;;3.33;;
56381;SDS011;50261;51.150;4.470;2022-10-01T09:33:27;11.05;;;3.08;;
56381;SDS011;50261;51.150;4.470;2022-10-01T09:36:10;12.98;;;2.60;;
56381;SDS011;50261;51.150;4.470;2022-10-01T09:38:40;11.63;;;2.92;;
56381;SDS011;50261;51.150;4.470;2022-10-01T09:41:07;14.25;;;3.00;;
56381;SDS011;50261;51.150;4.470;2022-10-01T09:43:33;15.13;;;3.15;;
56381;SDS011;50261;51.150;4.470;2022-10-01T09:46:01;15.57;;;3.45;;
56381;SDS011;50261;51.150;4.470;2022-10-01T09:48:30;18.05;;;3.53;;
56381;SDS011;50261;51.150;4.470;2022-10-01T09:51:00;13.50;;;3.45;;
56381;SDS011;50261;51.150;4.470;2022-10-01T09:53:50;13.52;;;3.20;;
56381;SDS011;50261;51.150;4.470;2022-10-01T09:56:15;8.55;;;3.13;;
56381;SDS011;50261;51.150;4.470;2022-10-01T09:58:44;13.80;;;3.40;;
56381;SDS011;50261;51.150;4.470;2022-10-01T10:01:22;9.80;;;2.28;;
56381;SDS011;50261;51.150;4.470;2022-10-01T10:03:55;14.60;;;3.08;;
56381;SDS011;50261;51.150;4.470;2022-10-01T10:06:22;9.23;;;2.33;;
56381;SDS011;50261;51.150;4.470;2022-10-01T10:08:52;11.77;;;2.70;;
56381;SDS011;50261;51.150;4.470;2022-10-01T10:11:25;11.30;;;2.42;;
56381;SDS011;50261;51.150;4.470;2022-10-01T10:13:52;9.57;;;2.77;;
56381;SDS011;50261;51.150;4.470;2022-10-01T10:18:51;11.40;;;2.72;;
56381;SDS011;50261;51.150;4.470;2022-10-01T10:21:31;13.10;;;2.30;;
56381;SDS011;50261;51.150;4.470;2022-10-01T10:24:02;9.68;;;2.35;;
56381;SDS011;50261;51.150;4.470;2022-10-01T10:26:30;13.32;;;2.53;;
56381;SDS011;50261;51.150;4.470;2022-10-01T10:28:56;12.73;;;2.13;;
56381;SDS011;50261;51.150;4.470;2022-10-01T10:31:23;14.35;;;2.25;;
56381;SDS011;50261;51.150;4.470;2022-10-01T10:34:04;9.30;;;2.33;;
56381;SDS011;50261;51.150;4.470;2022-10-01T10:36:34;12.98;;;2.40;;
56381;SDS011;50261;51.150;4.470;2022-10-01T10:39:00;16.95;;;3.00;;
56381;SDS011;50261;51.150;4.470;2022-10-01T10:41:27;10.95;;;2.40;;
56381;SDS011;50261;51.150;4.470;2022-10-01T10:43:54;10.88;;;2.22;;
56381;SDS011;50261;51.150;4.470;2022-10-01T10:46:23;14.48;;;2.03;;
56381;SDS011;50261;51.150;4.470;2022-10-01T10:48:54;16.25;;;2.90;;
56381;SDS011;50261;51.150;4.470;2022-10-01T10:51:22;11.07;;;2.45;;
56381;SDS011;50261;51.150;4.470;2022-10-01T10:53:48;10.27;;;2.30;;
56381;SDS011;50261;51.150;4.470;2022-10-01T10:56:18;9.68;;;2.28;;
56381;SDS011;50261;51.150;4.470;2022-10-01T10:58:47;11.65;;;2.15;;
56381;SDS011;50261;51.150;4.470;2022-10-01T11:01:14;11.75;;;2.58;;
56381;SDS011;50261;51.150;4.470;2022-10-01T11:03:45;12.77;;;2.85;;
56381;SDS011;50261;51.150;4.470;2022-10-01T11:06:12;17.65;;;2.88;;
56381;SDS011;50261;51.150;4.470;2022-10-01T11:08:39;15.43;;;2.58;;
56381;SDS011;50261;51.150;4.470;2022-10-01T11:11:17;12.57;;;2.60;;
56381;SDS011;50261;51.150;4.470;2022-10-01T11:16:28;9.55;;;2.58;;
56381;SDS011;50261;51.150;4.470;2022-10-01T11:24:01;12.60;;;2.45;;
56381;SDS011;50261;51.150;4.470;2022-10-01T11:26:31;10.43;;;2.30;;
56381;SDS011;50261;51.150;4.470;2022-10-01T11:29:12;7.05;;;1.70;;
56381;SDS011;50261;51.150;4.470;2022-10-01T11:31:46;10.85;;;2.97;;
56381;SDS011;50261;51.150;4.470;2022-10-01T11:39:15;10.55;;;2.22;;
56381;SDS011;50261;51.150;4.470;2022-10-01T11:41:47;11.10;;;2.50;;
56381;SDS011;50261;51.150;4.470;2022-10-01T11:44:31;8.13;;;2.00;;
56381;SDS011;50261;51.150;4.470;2022-10-01T11:47:09;9.48;;;1.52;;
56381;SDS011;50261;51.150;4.470;2022-10-01T11:55:10;8.25;;;2.05;;
56381;SDS011;50261;51.150;4.470;2022-10-01T11:57:54;8.95;;;2.45;;
56381;SDS011;50261;51.150;4.470;2022-10-01T12:00:40;11.80;;;2.80;;
56381;SDS011;50261;51.150;4.470;2022-10-01T12:03:11;9.73;;;2.28;;
56381;SDS011;50261;51.150;4.470;2022-10-01T12:05:40;7.35;;;1.95;;
56381;SDS011;50261;51.150;4.470;2022-10-01T12:08:12;8.95;;;2.08;;
56381;SDS011;50261;51.150;4.470;2022-10-01T12:15:44;14.60;;;1.75;;
56381;SDS011;50261;51.150;4.470;2022-10-01T12:18:22;7.20;;;1.80;;
56381;SDS011;50261;51.150;4.470;2022-10-01T12:20:50;7.43;;;2.00;;
56381;SDS011;50261;51.150;4.470;2022-10-01T12:23:21;9.95;;;2.10;;
56381;SDS011;50261;51.150;4.470;2022-10-01T12:28:22;8.57;;;1.92;;
56381;SDS011;50261;51.150;4.470;2022-10-01T12:31:12;7.93;;;2.42;;
56381;SDS011;50261;51.150;4.470;2022-10-01T12:36:27;11.65;;;2.15;;
56381;SDS011;50261;51.150;4.470;2022-10-01T12:46:59;7.38;;;2.00;;
56381;SDS011;50261;51.150;4.470;2022-10-01T12:51:57;5.97;;;1.70;;
56381;SDS011;50261;51.150;4.470;2022-10-01T13:05:05;11.73;;;1.77;;
56381;SDS011;50261;51.150;4.470;2022-10-01T13:07:37;9.00;;;2.23;;
56381;SDS011;50261;51.150;4.470;2022-10-01T13:13:06;8.40;;;1.58;;
56381;SDS011;50261;51.150;4.470;2022-10-01T13:15:39;7.25;;;1.90;;
56381;SDS011;50261;51.150;4.470;2022-10-01T13:20:53;7.22;;;1.63;;
56381;SDS011;50261;51.150;4.470;2022-10-01T13:23:22;7.55;;;1.60;;
56381;SDS011;50261;51.150;4.470;2022-10-01T13:31:11;9.02;;;2.40;;
56381;SDS011;50261;51.150;4.470;2022-10-01T13:33:39;6.60;;;1.97;;
56381;SDS011;50261;51.150;4.470;2022-10-01T13:36:05;7.00;;;1.75;;
56381;SDS011;50261;51.150;4.470;2022-10-01T13:46:30;7.30;;;1.80;;
56381;SDS011;50261;51.150;4.470;2022-10-01T13:49:15;11.30;;;2.30;;
56381;SDS011;50261;51.150;4.470;2022-10-01T13:51:42;8.25;;;2.08;;
56381;SDS011;50261;51.150;4.470;2022-10-01T13:54:17;8.07;;;2.00;;
56381;SDS011;50261;51.150;4.470;2022-10-01T13:56:44;9.65;;;2.33;;
56381;SDS011;50261;51.150;4.470;2022-10-01T13:59:24;10.18;;;1.95;;
56381;SDS011;50261;51.150;4.470;2022-10-01T14:01:50;8.93;;;1.77;;
56381;SDS011;50261;51.150;4.470;2022-10-01T14:04:37;7.60;;;1.63;;
56381;SDS011;50261;51.150;4.470;2022-10-01T14:07:20;9.45;;;1.83;;
56381;SDS011;50261;51.150;4.470;2022-10-01T14:09:54;11.07;;;2.08;;
56381;SDS011;50261;51.150;4.470;2022-10-01T14:12:29;6.88;;;1.85;;
56381;SDS011;50261;51.150;4.470;2022-10-01T14:17:58;9.85;;;2.13;;
56381;SDS011;50261;51.150;4.470;2022-10-01T14:21:11;7.82;;;2.13;;
56381;SDS011;50261;51.150;4.470;2022-10-01T14:23:12;9.13;;;2.15;;
56381;SDS011;50261;51.150;4.470;2022-10-01T14:28:10;10.27;;;2.58;;
56381;SDS011;50261;51.150;4.470;2022-10-01T14:38:13;6.13;;;1.80;;
56381;SDS011;50261;51.150;4.470;2022-10-01T14:40:44;6.95;;;1.95;;
56381;SDS011;50261;51.150;4.470;2022-10-01T14:43:15;8.82;;;1.90;;
56381;SDS011;50261;51.150;4.470;2022-10-01T14:45:48;4.22;;;1.13;;
56381;SDS011;50261;51.150;4.470;2022-10-01T14:48:14;8.35;;;1.40;;
56381;SDS011;50261;51.150;4.470;2022-10-01T14:50:40;6.85;;;1.50;;
56381;SDS011;50261;51.150;4.470;2022-10-01T14:53:12;5.50;;;1.55;;
56381;SDS011;50261;51.150;4.470;2022-10-01T14:55:39;6.70;;;1.88;;
56381;SDS011;50261;51.150;4.470;2022-10-01T14:58:05;6.85;;;2.20;;
56381;SDS011;50261;51.150;4.470;2022-10-01T15:00:31;9.15;;;1.70;;
56381;SDS011;50261;51.150;4.470;2022-10-01T15:05:35;8.20;;;2.00;;
56381;SDS011;50261;51.150;4.470;2022-10-01T15:08:08;7.28;;;2.22;;
56381;SDS011;50261;51.150;4.470;2022-10-01T15:10:35;6.85;;;1.98;;
56381;SDS011;50261;51.150;4.470;2022-10-01T15:13:01;9.73;;;2.25;;
56381;SDS011;50261;51.150;4.470;2022-10-01T15:15:32;10.88;;;2.58;;
56381;SDS011;50261;51.150;4.470;2022-10-01T15:17:58;8.20;;;2.22;;
56381;SDS011;50261;51.150;4.470;2022-10-01T15:20:24;12.18;;;1.95;;
56381;SDS011;50261;51.150;4.470;2022-10-01T15:22:50;10.55;;;2.45;;
56381;SDS011;50261;51.150;4.470;2022-10-01T15:25:21;11.50;;;2.38;;
56381;SDS011;50261;51.150;4.470;2022-10-01T15:27:47;9.68;;;2.28;;
56381;SDS011;50261;51.150;4.470;2022-10-01T15:30:14;15.35;;;2.50;;
56381;SDS011;50261;51.150;4.470;2022-10-01T15:32:45;10.48;;;2.50;;
56381;SDS011;50261;51.150;4.470;2022-10-01T15:35:13;9.13;;;2.17;;
56381;SDS011;50261;51.150;4.470;2022-10-01T15:37:40;11.13;;;2.25;;
56381;SDS011;50261;51.150;4.470;2022-10-01T15:40:11;14.23;;;2.83;;
56381;SDS011;50261;51.150;4.470;2022-10-01T15:43:08;11.25;;;2.08;;
56381;SDS011;50261;51.150;4.470;2022-10-01T15:45:30;10.85;;;2.50;;
56381;SDS011;50261;51.150;4.470;2022-10-01T15:47:56;11.68;;;2.40;;
56381;SDS011;50261;51.150;4.470;2022-10-01T15:57:56;11.57;;;2.67;;
56381;SDS011;50261;51.150;4.470;2022-10-01T16:00:24;11.73;;;2.70;;
56381;SDS011;50261;51.150;4.470;2022-10-01T16:02:50;13.68;;;3.20;;
56381;SDS011;50261;51.150;4.470;2022-10-01T16:05:19;11.07;;;2.72;;
56381;SDS011;50261;51.150;4.470;2022-10-01T16:07:47;11.90;;;2.60;;
56381;SDS011;50261;51.150;4.470;2022-10-01T16:10:20;10.73;;;2.53;;
56381;SDS011;50261;51.150;4.470;2022-10-01T16:12:51;10.70;;;2.72;;
56381;SDS011;50261;51.150;4.470;2022-10-01T16:15:24;11.40;;;2.72;;
56381;SDS011;50261;51.150;4.470;2022-10-01T16:17:57;12.63;;;2.42;;
56381;SDS011;50261;51.150;4.470;2022-10-01T16:23:09;10.55;;;2.78;;
56381;SDS011;50261;51.150;4.470;2022-10-01T16:25:42;14.10;;;2.53;;
56381;SDS011;50261;51.150;4.470;2022-10-01T16:28:20;7.72;;;2.30;;
56381;SDS011;50261;51.150;4.470;2022-10-01T16:30:49;11.98;;;2.78;;
56381;SDS011;50261;51.150;4.470;2022-10-01T16:33:15;12.35;;;2.50;;
56381;SDS011;50261;51.150;4.470;2022-10-01T16:35:55;14.10;;;3.13;;
56381;SDS011;50261;51.150;4.470;2022-10-01T16:38:30;11.77;;;2.53;;
56381;SDS011;50261;51.150;4.470;2022-10-01T16:40:57;13.10;;;3.00;;
56381;SDS011;50261;51.150;4.470;2022-10-01T16:43:23;12.07;;;2.97;;
56381;SDS011;50261;51.150;4.470;2022-10-01T16:45:49;11.63;;;2.88;;
56381;SDS011;50261;51.150;4.470;2022-10-01T16:48:15;14.70;;;2.75;;
56381;SDS011;50261;51.150;4.470;2022-10-01T16:50:42;7.40;;;2.90;;
56381;SDS011;50261;51.150;4.470;2022-10-01T16:53:13;15.05;;;2.90;;
56381;SDS011;50261;51.150;4.470;2022-10-01T16:55:40;11.68;;;2.75;;
56381;SDS011;50261;51.150;4.470;2022-10-01T16:58:17;12.77;;;2.80;;
56381;SDS011;50261;51.150;4.470;2022-10-01T17:00:55;14.05;;;3.05;;
56381;SDS011;50261;51.150;4.470;2022-10-01T17:03:21;15.40;;;3.03;;